createdAt,value
2022-10-04T00:01:11.157Z,17.30
2022-10-04T00:03:54.156Z,17.40
2022-10-04T00:06:26.838Z,17.40
2022-10-04T00:09:07.258Z,17.40
2022-10-04T00:11:44.959Z,17.30
2022-10-04T00:14:37.375Z,17.20
2022-10-04T00:17:18.371Z,17.10
2022-10-04T00:19:51.589Z,17.10
2022-10-04T00:22:31.935Z,17.00
2022-10-04T00:25:17.444Z,17.00
2022-10-04T00:28:20.198Z,16.90
2022-10-04T00:31:10.320Z,16.90
2022-10-04T00:33:50.477Z,16.90
2022-10-04T00:36:25.054Z,16.90
2022-10-04T00:39:07.814Z,16.90
2022-10-04T00:41:49.137Z,16.90
2022-10-04T00:44:36.160Z,17.00
2022-10-04T00:47:32.057Z,16.90
2022-10-04T00:50:34.990Z,16.90
2022-10-04T00:53:20.085Z,16.80
2022-10-04T00:55:59.379Z,16.80
2022-10-04T00:58:40.759Z,16.90
2022-10-04T01:01:12.567Z,16.80
2022-10-04T01:03:46.062Z,16.80
2022-10-04T01:06:20.383Z,16.70
2022-10-04T01:08:55.446Z,16.70
2022-10-04T01:11:35.093Z,16.70
2022-10-04T01:14:19.389Z,16.70
2022-10-04T01:16:51.870Z,16.70
2022-10-04T01:19:26.697Z,16.80
2022-10-04T01:22:10.148Z,16.80
2022-10-04T01:24:44.116Z,16.80
2022-10-04T01:27:37.621Z,16.90
2022-10-04T01:30:14.701Z,16.90
2022-10-04T01:32:46.627Z,16.90
2022-10-04T01:35:19.210Z,16.90
2022-10-04T01:37:51.131Z,17.00
2022-10-04T01:40:23.137Z,16.90
2022-10-04T01:43:02.084Z,17.00
2022-10-04T01:45:40.382Z,17.00
2022-10-04T01:48:16.743Z,17.00
2022-10-04T01:51:01.795Z,17.00
2022-10-04T01:53:45.063Z,16.90
2022-10-04T01:56:24.839Z,16.90
2022-10-04T01:59:02.807Z,16.90
2022-10-04T02:01:49.602Z,16.90
2022-10-04T02:04:27.556Z,16.80
2022-10-04T02:07:01.899Z,16.80
2022-10-04T02:09:38.642Z,16.90
2022-10-04T02:12:18.804Z,16.80
2022-10-04T02:14:53.274Z,16.80
2022-10-04T02:17:37.527Z,16.80
2022-10-04T02:20:18.154Z,16.70
2022-10-04T02:23:03.416Z,16.70
2022-10-04T02:25:37.545Z,16.70
2022-10-04T02:28:14.119Z,16.70
2022-10-04T02:31:10.656Z,16.60
2022-10-04T02:33:45.118Z,16.60
2022-10-04T02:36:19.026Z,16.60
2022-10-04T02:39:00.831Z,16.60
2022-10-04T02:41:44.287Z,16.60
2022-10-04T02:44:22.078Z,16.60
2022-10-04T02:46:57.299Z,16.60
2022-10-04T02:49:32.362Z,16.50
2022-10-04T02:52:20.859Z,16.50
2022-10-04T02:55:04.933Z,16.50
2022-10-04T02:57:41.267Z,16.50
2022-10-04T03:00:16.186Z,16.50
2022-10-04T03:03:12.879Z,16.50
2022-10-04T03:05:59.622Z,16.50
2022-10-04T03:08:45.000Z,16.40
2022-10-04T03:11:18.998Z,16.40
2022-10-04T03:13:54.283Z,16.40
2022-10-04T03:16:26.605Z,16.30
2022-10-04T03:18:58.658Z,16.40
2022-10-04T03:21:32.119Z,16.40
2022-10-04T03:24:06.310Z,16.50
2022-10-04T03:26:47.910Z,16.60
2022-10-04T03:29:23.188Z,16.60
2022-10-04T03:31:58.285Z,16.50
2022-10-04T03:34:38.741Z,16.50
2022-10-04T03:37:16.387Z,16.50
2022-10-04T03:39:55.195Z,16.40
2022-10-04T03:42:30.332Z,16.40
2022-10-04T03:45:06.488Z,16.30
2022-10-04T03:47:43.319Z,16.20
2022-10-04T03:50:33.588Z,16.10
2022-10-04T03:53:16.136Z,16.10
2022-10-04T03:55:48.114Z,16.00
2022-10-04T03:58:20.971Z,16.00
2022-10-04T04:00:59.154Z,15.90
2022-10-04T04:03:42.095Z,15.90
2022-10-04T04:06:17.956Z,15.90
2022-10-04T04:08:54.516Z,15.90
2022-10-04T04:11:27.821Z,15.90
2022-10-04T04:14:24.726Z,15.80
2022-10-04T04:17:18.392Z,15.80
2022-10-04T04:19:50.266Z,15.80
2022-10-04T04:22:22.243Z,15.80
2022-10-04T04:24:54.379Z,15.70
2022-10-04T04:27:29.137Z,15.70
2022-10-04T04:30:02.513Z,15.70
2022-10-04T04:32:40.309Z,15.80
2022-10-04T04:35:23.981Z,15.80
2022-10-04T04:38:13.158Z,15.80
2022-10-04T04:40:45.522Z,15.90
2022-10-04T04:43:22.773Z,16.00
2022-10-04T04:46:22.162Z,16.00
2022-10-04T04:48:53.642Z,16.10
2022-10-04T04:51:28.717Z,16.20
2022-10-04T04:54:03.549Z,16.20
2022-10-04T04:56:35.751Z,16.20
2022-10-04T04:59:08.718Z,16.20
2022-10-04T05:01:43.802Z,16.20
2022-10-04T05:04:24.748Z,16.10
2022-10-04T05:07:15.580Z,16.10
2022-10-04T05:09:47.374Z,16.00
2022-10-04T05:12:22.936Z,16.00
2022-10-04T05:14:56.825Z,16.10
2022-10-04T05:17:35.126Z,16.20
2022-10-04T05:20:07.510Z,16.20
2022-10-04T05:22:43.907Z,16.20
2022-10-04T05:25:29.220Z,16.30
2022-10-04T05:28:01.795Z,16.30
2022-10-04T05:30:40.886Z,16.30
2022-10-04T05:33:18.751Z,16.30
2022-10-04T05:36:09.712Z,16.30
2022-10-04T05:38:51.342Z,16.30
2022-10-04T05:41:34.627Z,16.30
2022-10-04T05:44:52.121Z,16.30
2022-10-04T05:47:28.801Z,16.40
2022-10-04T05:50:01.209Z,16.40
2022-10-04T05:52:38.527Z,16.40
2022-10-04T05:55:13.261Z,16.40
2022-10-04T05:58:19.203Z,16.40
2022-10-04T06:01:16.499Z,16.40
2022-10-04T06:04:19.109Z,16.50
2022-10-04T06:07:00.445Z,16.60
2022-10-04T06:09:52.327Z,16.70
2022-10-04T06:12:44.420Z,16.80
2022-10-04T06:15:31.652Z,17.00
2022-10-04T06:18:12.826Z,17.10
2022-10-04T06:20:54.967Z,17.20
2022-10-04T06:23:30.282Z,17.30
2022-10-04T06:26:11.877Z,17.40
2022-10-04T06:28:50.784Z,17.70
2022-10-04T06:31:24.481Z,18.00
2022-10-04T06:34:40.579Z,18.20
2022-10-04T06:37:29.758Z,18.40
2022-10-04T06:40:16.590Z,18.70
2022-10-04T06:42:57.169Z,18.80
2022-10-04T06:45:40.999Z,19.00
2022-10-04T06:48:31.642Z,19.10
2022-10-04T06:51:24.839Z,19.40
2022-10-04T06:54:21.386Z,19.60
2022-10-04T06:57:31.721Z,19.80
2022-10-04T07:00:14.232Z,20.20
2022-10-04T07:03:10.396Z,20.30
2022-10-04T07:05:55.618Z,20.40
2022-10-04T07:08:34.466Z,20.50
2022-10-04T07:11:30.180Z,20.40
2022-10-04T07:14:30.948Z,20.20
2022-10-04T07:17:10.215Z,20.10
2022-10-04T07:19:46.813Z,20.20
2022-10-04T07:22:46.959Z,20.10
2022-10-04T07:25:28.171Z,20.20
2022-10-04T07:28:27.532Z,20.10
2022-10-04T07:30:59.485Z,20.10
2022-10-04T07:33:43.124Z,20.00
2022-10-04T07:36:24.206Z,20.00
2022-10-04T07:39:11.290Z,20.10
2022-10-04T07:42:22.842Z,20.20
2022-10-04T07:45:04.069Z,20.20
2022-10-04T07:47:36.196Z,20.40
2022-10-04T07:50:22.237Z,20.40
2022-10-04T07:53:09.605Z,20.40
2022-10-04T07:56:06.672Z,20.40
2022-10-04T07:58:45.985Z,20.50
2022-10-04T08:01:33.088Z,20.50
2022-10-04T08:04:31.248Z,20.40
2022-10-04T08:07:14.130Z,20.30
2022-10-04T08:09:51.586Z,20.30
2022-10-04T08:12:44.580Z,20.50
2022-10-04T08:15:37.054Z,20.50
2022-10-04T08:18:30.727Z,20.60
2022-10-04T08:21:08.695Z,20.70
2022-10-04T08:23:58.147Z,20.80
2022-10-04T08:26:57.471Z,20.90
2022-10-04T08:30:00.404Z,20.90
2022-10-04T08:32:52.212Z,20.60
2022-10-04T08:35:51.943Z,20.50
2022-10-04T08:38:42.997Z,20.70
2022-10-04T08:41:30.050Z,21.00
2022-10-04T08:44:31.014Z,21.10
2022-10-04T08:47:24.639Z,21.10
2022-10-04T08:50:05.408Z,21.00
2022-10-04T08:53:11.381Z,21.20
2022-10-04T08:56:01.781Z,21.40
2022-10-04T08:58:51.767Z,21.60
2022-10-04T09:01:51.106Z,21.70
2022-10-04T09:04:43.993Z,21.80
2022-10-04T09:07:43.875Z,21.60
2022-10-04T09:10:44.577Z,21.50
2022-10-04T09:13:38.527Z,21.70
2022-10-04T09:16:42.412Z,21.90
2022-10-04T09:19:31.757Z,22.10
2022-10-04T09:22:23.589Z,22.60
2022-10-04T09:25:32.140Z,23.10
2022-10-04T09:28:24.574Z,23.20
2022-10-04T09:30:56.523Z,23.60
2022-10-04T09:33:44.107Z,23.60
2022-10-04T09:36:43.013Z,23.70
2022-10-04T09:39:31.099Z,23.50
2022-10-04T09:42:39.175Z,23.10
2022-10-04T09:45:51.891Z,22.70
2022-10-04T09:48:53.539Z,22.80
2022-10-04T09:51:50.828Z,23.00
2022-10-04T09:55:00.140Z,22.80
2022-10-04T09:58:09.222Z,22.50
2022-10-04T10:01:16.949Z,22.30
2022-10-04T10:04:23.502Z,22.20
2022-10-04T10:07:04.606Z,22.30
2022-10-04T10:10:10.475Z,22.50
2022-10-04T10:13:19.645Z,22.60
2022-10-04T10:16:19.199Z,22.70
2022-10-04T10:19:25.024Z,22.70
2022-10-04T10:22:05.699Z,22.30
2022-10-04T10:25:04.099Z,22.20
2022-10-04T10:27:57.480Z,22.40
2022-10-04T10:31:08.620Z,22.70
2022-10-04T10:34:07.127Z,23.00
2022-10-04T10:36:52.288Z,23.20
2022-10-04T10:39:27.168Z,23.20
2022-10-04T10:42:38.418Z,23.20
2022-10-04T10:45:26.636Z,22.80
2022-10-04T10:48:13.957Z,22.30
2022-10-04T10:51:00.415Z,21.80
2022-10-04T10:54:00.214Z,21.80
2022-10-04T10:56:50.575Z,21.70
2022-10-04T11:00:00.656Z,21.90
2022-10-04T11:02:50.477Z,22.10
2022-10-04T11:05:49.349Z,22.50
2022-10-04T11:08:30.065Z,22.80
2022-10-04T11:11:16.718Z,23.00
2022-10-04T11:14:11.858Z,22.60
2022-10-04T11:16:49.516Z,22.20
2022-10-04T11:19:39.494Z,21.90
2022-10-04T11:22:25.114Z,22.00
2022-10-04T11:25:36.045Z,22.00
2022-10-04T11:28:46.851Z,21.80
2022-10-04T11:31:50.152Z,21.80
2022-10-04T11:34:48.862Z,21.70
2022-10-04T11:37:23.534Z,21.70
2022-10-04T11:40:29.121Z,21.70
2022-10-04T11:43:24.990Z,21.90
2022-10-04T11:46:22.453Z,22.00
2022-10-04T11:49:10.974Z,22.10
2022-10-04T11:52:01.225Z,22.10
2022-10-04T11:55:11.933Z,22.20
2022-10-04T11:57:58.630Z,22.30
2022-10-04T12:00:54.439Z,22.40
2022-10-04T12:03:44.330Z,22.00
2022-10-04T12:06:38.888Z,21.90
2022-10-04T12:09:21.512Z,21.90
2022-10-04T12:12:39.246Z,22.00
2022-10-04T12:15:30.348Z,21.90
2022-10-04T12:18:33.247Z,21.90
2022-10-04T12:21:28.978Z,21.90
2022-10-04T12:24:29.260Z,22.10
2022-10-04T12:27:21.904Z,21.90
2022-10-04T12:30:33.249Z,21.80
2022-10-04T12:33:23.767Z,21.70
2022-10-04T12:36:08.575Z,21.80
2022-10-04T12:38:59.430Z,21.90
2022-10-04T12:41:42.233Z,21.90
2022-10-04T12:44:40.849Z,21.90
2022-10-04T12:47:48.694Z,21.80
2022-10-04T12:50:49.820Z,21.70
2022-10-04T12:53:43.687Z,21.60
2022-10-04T12:56:37.310Z,21.60
2022-10-04T12:59:43.130Z,21.60
2022-10-04T13:02:45.606Z,21.50
2022-10-04T13:05:25.012Z,21.60
2022-10-04T13:08:15.078Z,21.80
2022-10-04T13:11:11.791Z,21.80
2022-10-04T13:14:20.723Z,21.80
2022-10-04T13:20:12.850Z,21.80
2022-10-04T13:23:06.166Z,21.60
2022-10-04T13:25:53.744Z,21.60
2022-10-04T13:28:34.480Z,21.50
2022-10-04T13:31:32.967Z,21.60
2022-10-04T13:34:31.567Z,21.70
2022-10-04T13:37:35.782Z,21.70
2022-10-04T13:40:55.960Z,21.90
2022-10-04T13:43:28.291Z,21.80
2022-10-04T13:46:03.168Z,21.80
2022-10-04T13:48:56.553Z,21.80
2022-10-04T13:51:28.537Z,21.80
2022-10-04T13:54:40.942Z,21.70
2022-10-04T13:57:29.970Z,21.80
2022-10-04T14:00:10.862Z,21.80
2022-10-04T14:03:01.223Z,21.90
2022-10-04T14:06:00.590Z,22.00
2022-10-04T14:08:57.531Z,22.10
2022-10-04T14:12:00.590Z,22.00
2022-10-04T14:15:01.450Z,22.10
2022-10-04T14:17:51.568Z,22.00
2022-10-04T14:21:02.091Z,22.00
2022-10-04T14:23:54.585Z,21.90
2022-10-04T14:26:48.416Z,21.90
2022-10-04T14:29:46.489Z,21.90
2022-10-04T14:32:52.171Z,22.00
2022-10-04T14:35:41.761Z,21.90
2022-10-04T14:38:27.579Z,21.80
2022-10-04T14:41:35.195Z,21.70
2022-10-04T14:44:28.728Z,21.60
2022-10-04T14:47:11.452Z,21.70
2022-10-04T14:50:08.559Z,21.70
2022-10-04T14:53:05.278Z,21.70
2022-10-04T14:56:00.687Z,21.70
2022-10-04T14:58:35.950Z,21.90
2022-10-04T15:01:21.637Z,22.00
2022-10-04T15:04:21.475Z,22.00
2022-10-04T15:07:15.329Z,21.90
2022-10-04T15:10:03.484Z,21.80
2022-10-04T15:13:10.368Z,21.80
2022-10-04T15:16:02.591Z,21.90
2022-10-04T15:18:52.710Z,21.90
2022-10-04T15:21:46.494Z,21.90
2022-10-04T15:24:18.298Z,21.90
2022-10-04T15:27:09.396Z,21.80
2022-10-04T15:30:00.481Z,21.80
2022-10-04T15:32:54.932Z,21.80
2022-10-04T15:35:47.647Z,21.70
2022-10-04T15:38:22.463Z,21.70
2022-10-04T15:41:27.391Z,21.80
2022-10-04T15:44:12.599Z,21.80
2022-10-04T15:47:10.082Z,21.80
2022-10-04T15:50:21.399Z,21.70
2022-10-04T15:53:30.549Z,21.70
2022-10-04T15:56:16.194Z,21.50
2022-10-04T15:58:57.249Z,21.30
2022-10-04T16:01:54.164Z,21.10
2022-10-04T16:04:40.399Z,21.00
2022-10-04T16:07:17.163Z,21.00
2022-10-04T16:10:25.691Z,21.00
2022-10-04T16:13:26.292Z,20.90
2022-10-04T16:16:16.687Z,20.80
2022-10-04T16:19:26.847Z,20.80
2022-10-04T16:22:10.081Z,20.60
2022-10-04T16:24:53.861Z,20.60
2022-10-04T16:27:56.327Z,20.60
2022-10-04T16:30:34.009Z,20.50
2022-10-04T16:33:32.409Z,20.50
2022-10-04T16:36:16.382Z,20.40
2022-10-04T16:39:18.662Z,20.30
2022-10-04T16:42:01.214Z,20.30
2022-10-04T16:44:48.310Z,20.20
2022-10-04T16:47:27.993Z,20.10
2022-10-04T16:50:04.742Z,19.90
2022-10-04T16:52:53.566Z,19.70
2022-10-04T16:55:34.223Z,19.90
2022-10-04T16:58:27.774Z,19.70
2022-10-04T17:01:25.364Z,19.60
2022-10-04T17:04:16.086Z,19.30
2022-10-04T17:06:54.957Z,19.10
2022-10-04T17:09:37.780Z,18.90
2022-10-04T17:12:27.812Z,18.90
2022-10-04T17:15:27.669Z,18.90
2022-10-04T17:18:08.347Z,19.00
2022-10-04T17:20:42.930Z,18.90
2022-10-04T17:23:33.970Z,18.80
2022-10-04T17:26:43.906Z,18.60
2022-10-04T17:29:32.810Z,18.60
2022-10-04T17:32:16.962Z,18.60
2022-10-04T17:35:09.962Z,18.70
2022-10-04T17:37:53.535Z,18.80
2022-10-04T17:40:40.148Z,18.80
2022-10-04T17:43:45.243Z,18.60
2022-10-04T17:46:29.180Z,18.50
2022-10-04T17:49:27.696Z,18.30
2022-10-04T17:52:23.674Z,18.20
2022-10-04T17:55:15.773Z,18.10
2022-10-04T17:58:03.257Z,18.10
2022-10-04T18:00:52.952Z,18.20
2022-10-04T18:03:47.031Z,18.20
2022-10-04T18:06:28.705Z,18.10
2022-10-04T18:09:10.641Z,18.00
2022-10-04T18:11:47.279Z,18.00
2022-10-04T18:14:37.846Z,17.90
2022-10-04T18:17:21.713Z,17.90
2022-10-04T18:20:15.466Z,17.90
2022-10-04T18:22:49.733Z,17.90
2022-10-04T18:25:23.950Z,17.90
2022-10-04T18:28:07.850Z,18.00
2022-10-04T18:30:49.085Z,17.90
2022-10-04T18:33:26.058Z,18.00
2022-10-04T18:36:05.879Z,18.10
2022-10-04T18:38:40.518Z,18.20
2022-10-04T18:41:20.323Z,18.30
2022-10-04T18:43:59.894Z,18.20
2022-10-04T18:46:40.306Z,18.10
2022-10-04T18:49:17.422Z,17.90
2022-10-04T18:52:13.809Z,17.80
2022-10-04T18:55:05.256Z,17.80
2022-10-04T18:58:06.805Z,17.70
2022-10-04T19:01:06.883Z,17.80
2022-10-04T19:03:45.615Z,17.80
2022-10-04T19:06:32.755Z,17.80
2022-10-04T19:09:34.766Z,17.80
2022-10-04T19:12:24.226Z,17.90
2022-10-04T19:15:34.343Z,17.90
2022-10-04T19:18:24.937Z,18.00
2022-10-04T19:21:23.780Z,18.10
2022-10-04T19:24:16.874Z,18.20
2022-10-04T19:26:55.690Z,18.10
2022-10-04T19:29:37.253Z,18.10
2022-10-04T19:32:38.111Z,18.10
2022-10-04T19:35:48.185Z,18.20
2022-10-04T19:38:29.559Z,18.10
2022-10-04T19:41:26.167Z,18.20
2022-10-04T19:44:35.704Z,18.20
2022-10-04T19:47:28.995Z,18.20
2022-10-04T19:50:10.958Z,18.20
2022-10-04T19:53:03.694Z,18.10
2022-10-04T19:55:54.279Z,18.20
2022-10-04T19:58:39.203Z,18.20
2022-10-04T20:01:18.713Z,18.30
2022-10-04T20:04:11.935Z,18.20
2022-10-04T20:06:55.671Z,18.20
2022-10-04T20:09:44.469Z,18.20
2022-10-04T20:12:45.451Z,18.10
2022-10-04T20:15:17.315Z,18.10
2022-10-04T20:17:50.795Z,18.10
2022-10-04T20:20:55.013Z,18.10
2022-10-04T20:23:43.961Z,18.10
2022-10-04T20:26:56.408Z,18.00
2022-10-04T20:29:38.356Z,18.00
2022-10-04T20:32:12.519Z,17.90
2022-10-04T20:34:44.866Z,17.90
2022-10-04T20:37:19.607Z,17.90
2022-10-04T20:39:56.492Z,17.90
2022-10-04T20:42:33.816Z,17.90
2022-10-04T20:45:13.137Z,17.80
2022-10-04T20:47:57.884Z,17.90
2022-10-04T20:50:43.137Z,18.00
2022-10-04T20:53:28.443Z,17.90
2022-10-04T20:56:33.202Z,17.90
2022-10-04T20:59:05.250Z,18.10
2022-10-04T21:01:37.533Z,18.10
2022-10-04T21:04:30.470Z,18.10
2022-10-04T21:07:03.512Z,18.00
2022-10-04T21:09:37.044Z,18.00
2022-10-04T21:12:36.863Z,17.90
2022-10-04T21:15:17.540Z,17.80
2022-10-04T21:18:08.285Z,17.80
2022-10-04T21:20:47.754Z,17.70
2022-10-04T21:23:31.464Z,17.70
2022-10-04T21:26:25.155Z,17.60
2022-10-04T21:29:01.594Z,17.60
2022-10-04T21:31:34.068Z,17.70
2022-10-04T21:34:07.067Z,17.70
2022-10-04T21:36:38.977Z,17.60
2022-10-04T21:39:10.918Z,17.50
2022-10-04T21:41:43.066Z,17.50
2022-10-04T21:44:14.930Z,17.50
2022-10-04T21:46:47.153Z,17.60
2022-10-04T21:49:19.401Z,17.70
2022-10-04T21:51:51.421Z,17.60
2022-10-04T21:54:23.410Z,17.60
2022-10-04T21:56:55.423Z,17.60
2022-10-04T21:59:27.586Z,17.70
2022-10-04T22:01:59.571Z,17.50
2022-10-04T22:04:31.600Z,17.50
2022-10-04T22:07:03.465Z,17.50
2022-10-04T22:09:36.054Z,17.50
2022-10-04T22:12:08.048Z,17.40
2022-10-04T22:14:39.881Z,17.50
2022-10-04T22:17:11.794Z,17.50
2022-10-04T22:19:43.678Z,17.60
2022-10-04T22:22:17.138Z,17.60
2022-10-04T22:24:48.963Z,17.70
2022-10-04T22:27:21.081Z,17.70
2022-10-04T22:29:56.169Z,17.70
2022-10-04T22:32:28.583Z,17.70
2022-10-04T22:35:06.965Z,17.90
2022-10-04T22:37:39.600Z,17.90
2022-10-04T22:40:19.086Z,17.90
2022-10-04T22:42:53.527Z,17.80
2022-10-04T22:45:29.306Z,17.90
2022-10-04T22:48:10.083Z,17.90
2022-10-04T22:50:41.991Z,17.80
2022-10-04T22:53:19.582Z,17.80
2022-10-04T22:55:55.841Z,17.80
2022-10-04T22:58:27.785Z,17.70
2022-10-04T23:01:01.052Z,17.60
2022-10-04T23:03:34.307Z,17.60
2022-10-04T23:06:12.642Z,17.60
2022-10-04T23:08:45.119Z,17.70
2022-10-04T23:11:17.231Z,17.90
2022-10-04T23:13:49.074Z,17.90
2022-10-04T23:16:22.851Z,17.90
2022-10-04T23:19:15.457Z,17.80
2022-10-04T23:21:49.228Z,17.80
2022-10-04T23:24:22.809Z,17.70
2022-10-04T23:26:56.465Z,17.70
2022-10-04T23:29:31.936Z,17.80
2022-10-04T23:32:12.528Z,17.70
2022-10-04T23:34:54.255Z,17.70
2022-10-04T23:37:32.321Z,17.80
2022-10-04T23:40:08.441Z,17.70
2022-10-04T23:42:40.584Z,17.70
2022-10-04T23:45:20.212Z,17.60
2022-10-04T23:47:54.683Z,17.60
2022-10-04T23:50:31.539Z,17.60
2022-10-04T23:53:10.391Z,17.60
2022-10-04T23:55:44.013Z,17.50
2022-10-04T23:58:19.320Z,17.50
